Time;durP1;ratioP1;P1;durP2;ratioP2;P2;SDS_P1;SDS_P2;PMS_P1;PMS_P2;Temp;Humidity;BMP_temperature;BMP_pressure;BME280_temperature;BME280_humidity;BME280_pressure;Samples;Min_cycle;Max_cycle;Signal;HPM_P1;HPM_P2
2022/08/30 00:02:31;;;;;;;5.23;3.10;;;;;;;;;;5036613;28;20454;-73
2022/08/30 00:05:00;;;;;;;3.20;2.93;;;;;;;;;;5036881;28;20443;-73
2022/08/30 00:07:29;;;;;;;3.17;2.97;;;;;;;;;;5036763;28;20450;-73
2022/08/30 00:09:57;;;;;;;4.43;3.20;;;;;;;;;;5036609;28;20871;-73
2022/08/30 00:12:24;;;;;;;4.50;2.93;;;;;;;;;;5036616;28;20453;-73
2022/08/30 00:14:51;;;;;;;3.87;3.27;;;;;;;;;;5036682;28;20531;-73
2022/08/30 00:17:19;;;;;;;4.50;3.77;;;;;;;;;;5036683;28;20927;-73
2022/08/30 00:19:46;;;;;;;3.10;2.90;;;;;;;;;;5036222;28;20453;-73
2022/08/30 00:22:13;;;;;;;5.90;3.70;;;;;;;;;;5036643;28;20485;-73
2022/08/30 00:24:42;;;;;;;3.33;2.80;;;;;;;;;;5036446;28;20440;-74
2022/08/30 00:27:09;;;;;;;3.47;3.17;;;;;;;;;;5036045;28;20537;-73
2022/08/30 00:29:36;;;;;;;2.97;2.77;;;;;;;;;;5036063;28;20526;-73
2022/08/30 00:32:04;;;;;;;4.23;3.27;;;;;;;;;;5035861;28;20538;-73
2022/08/30 00:34:31;;;;;;;4.90;2.90;;;;;;;;;;5036270;28;20446;-73
2022/08/30 00:36:59;;;;;;;6.13;3.40;;;;;;;;;;5036218;28;20434;-73
2022/08/30 00:39:26;;;;;;;4.83;3.13;;;;;;;;;;5036096;28;20450;-73
2022/08/30 00:41:54;;;;;;;3.20;3.00;;;;;;;;;;5035796;28;21020;-74
2022/08/30 00:44:22;;;;;;;3.57;3.27;;;;;;;;;;5035707;28;21033;-73
2022/08/30 00:46:50;;;;;;;3.33;3.03;;;;;;;;;;5036170;28;20498;-74
2022/08/30 00:49:17;;;;;;;5.93;3.13;;;;;;;;;;5035914;28;20445;-74
2022/08/30 00:51:45;;;;;;;6.77;3.20;;;;;;;;;;5035097;28;20450;-74
2022/08/30 00:54:12;;;;;;;5.40;3.50;;;;;;;;;;5035819;28;20459;-73
2022/08/30 00:56:40;;;;;;;4.60;3.13;;;;;;;;;;5036040;28;20527;-73
2022/08/30 00:59:09;;;;;;;4.10;3.07;;;;;;;;;;5035699;28;20446;-74
2022/08/30 01:01:37;;;;;;;3.47;3.17;;;;;;;;;;5035366;28;20478;-72
2022/08/30 01:04:05;;;;;;;3.70;3.27;;;;;;;;;;5035280;28;20450;-73
2022/08/30 01:06:32;;;;;;;5.00;3.30;;;;;;;;;;5035369;28;20528;-73
2022/08/30 01:09:01;;;;;;;5.53;3.93;;;;;;;;;;5035129;28;20474;-73
2022/08/30 01:11:28;;;;;;;3.80;2.90;;;;;;;;;;5035814;28;20481;-73
2022/08/30 01:13:56;;;;;;;6.10;3.60;;;;;;;;;;5035085;28;20526;-73
2022/08/30 01:16:25;;;;;;;3.70;3.50;;;;;;;;;;5035193;28;20450;-74
2022/08/30 01:18:54;;;;;;;4.57;3.70;;;;;;;;;;5035154;28;20442;-73
2022/08/30 01:21:25;;;;;;;5.10;3.73;;;;;;;;;;5035376;28;20445;-73
2022/08/30 01:23:56;;;;;;;4.50;4.10;;;;;;;;;;5035555;28;20974;-73
2022/08/30 01:26:23;;;;;;;4.57;4.23;;;;;;;;;;5035066;28;20476;-74
2022/08/30 01:28:53;;;;;;;3.73;3.43;;;;;;;;;;5035384;28;20456;-73
2022/08/30 01:31:20;;;;;;;5.57;4.83;;;;;;;;;;5035224;28;20439;-73
2022/08/30 01:33:47;;;;;;;4.50;4.10;;;;;;;;;;5035028;28;20446;-73
2022/08/30 01:36:16;;;;;;;4.50;4.20;;;;;;;;;;5035294;28;20940;-73
2022/08/30 01:38:46;;;;;;;4.60;4.20;;;;;;;;;;5035362;28;20453;-73
2022/08/30 01:41:17;;;;;;;5.97;4.00;;;;;;;;;;5034770;28;20923;-73
2022/08/30 01:43:45;;;;;;;8.73;4.60;;;;;;;;;;5034553;28;20557;-73
2022/08/30 01:46:13;;;;;;;4.37;4.00;;;;;;;;;;5034917;28;20481;-73
2022/08/30 01:48:40;;;;;;;4.30;4.00;;;;;;;;;;5034687;28;20428;-73
2022/08/30 01:51:10;;;;;;;8.17;4.47;;;;;;;;;;5034489;28;20494;-74
2022/08/30 01:53:37;;;;;;;4.80;4.30;;;;;;;;;;5034677;28;20455;-74
2022/08/30 01:56:05;;;;;;;5.23;4.80;;;;;;;;;;5034784;28;20454;-73
2022/08/30 01:58:34;;;;;;;4.90;4.37;;;;;;;;;;5034922;28;20442;-73
2022/08/30 02:01:01;;;;;;;4.80;4.00;;;;;;;;;;5034589;28;20479;-73
2022/08/30 02:03:33;;;;;;;3.93;3.63;;;;;;;;;;5033567;28;20979;-72
2022/08/30 02:06:03;;;;;;;4.30;3.97;;;;;;;;;;5034368;28;20520;-72
2022/08/30 02:08:30;;;;;;;4.43;4.03;;;;;;;;;;5033748;28;20852;-72
2022/08/30 02:10:58;;;;;;;4.63;4.20;;;;;;;;;;5034198;28;20436;-73
2022/08/30 02:13:26;;;;;;;10.33;4.63;;;;;;;;;;5033929;28;20491;-72
2022/08/30 02:15:55;;;;;;;5.43;4.27;;;;;;;;;;5033988;28;20961;-72
2022/08/30 02:18:22;;;;;;;4.67;4.27;;;;;;;;;;5033926;28;20444;-73
2022/08/30 02:20:50;;;;;;;4.63;4.07;;;;;;;;;;5034281;28;20535;-73
2022/08/30 02:23:17;;;;;;;4.63;4.20;;;;;;;;;;5034679;28;20484;-72
2022/08/30 02:25:44;;;;;;;5.33;4.37;;;;;;;;;;5033736;28;20535;-73
2022/08/30 02:28:12;;;;;;;5.17;4.70;;;;;;;;;;5034193;28;20639;-73
2022/08/30 02:30:39;;;;;;;4.50;4.00;;;;;;;;;;5034013;28;20449;-73
2022/08/30 02:33:08;;;;;;;5.20;4.70;;;;;;;;;;5034446;28;20450;-73
2022/08/30 02:35:35;;;;;;;9.67;4.00;;;;;;;;;;5033668;28;20463;-73
2022/08/30 02:38:02;;;;;;;4.27;3.87;;;;;;;;;;5034021;28;20476;-73
2022/08/30 02:40:30;;;;;;;4.37;3.97;;;;;;;;;;5034061;28;20482;-73
2022/08/30 02:42:57;;;;;;;4.73;4.30;;;;;;;;;;5033829;28;20479;-73
2022/08/30 02:45:24;;;;;;;4.77;4.37;;;;;;;;;;5033906;28;20448;-73
2022/08/30 02:47:52;;;;;;;4.90;4.50;;;;;;;;;;5033453;28;20534;-73
2022/08/30 02:50:21;;;;;;;4.47;4.07;;;;;;;;;;5033779;28;20435;-73
2022/08/30 02:52:48;;;;;;;6.33;4.30;;;;;;;;;;5033707;28;20453;-73
2022/08/30 02:55:16;;;;;;;4.53;4.23;;;;;;;;;;5033340;28;20982;-72
2022/08/30 02:57:43;;;;;;;4.40;4.00;;;;;;;;;;5033853;28;20907;-73
2022/08/30 03:00:12;;;;;;;5.97;4.43;;;;;;;;;;5033577;28;20534;-73
2022/08/30 03:02:40;;;;;;;5.50;4.27;;;;;;;;;;5033508;28;20519;-73
2022/08/30 03:05:07;;;;;;;4.00;3.67;;;;;;;;;;5033184;28;20470;-73
2022/08/30 03:07:36;;;;;;;4.87;4.37;;;;;;;;;;5033206;28;20448;-73
2022/08/30 03:10:04;;;;;;;5.23;4.20;;;;;;;;;;5032880;28;20486;-73
2022/08/30 03:12:32;;;;;;;4.20;3.80;;;;;;;;;;5033482;28;20518;-73
2022/08/30 03:14:59;;;;;;;5.27;3.93;;;;;;;;;;5032765;28;20446;-73
2022/08/30 03:17:26;;;;;;;6.90;5.23;;;;;;;;;;5033394;28;20628;-73
2022/08/30 03:19:54;;;;;;;4.83;4.40;;;;;;;;;;5032995;28;20444;-73
2022/08/30 03:22:22;;;;;;;4.50;4.10;;;;;;;;;;5033311;28;20573;-73
2022/08/30 03:24:50;;;;;;;4.60;4.20;;;;;;;;;;5032925;28;20555;-73
2022/08/30 03:27:18;;;;;;;4.37;3.83;;;;;;;;;;5032986;28;20447;-73
2022/08/30 03:29:45;;;;;;;4.33;4.03;;;;;;;;;;5032916;28;20486;-73
2022/08/30 03:32:12;;;;;;;4.30;4.00;;;;;;;;;;5033270;28;20566;-74
2022/08/30 03:34:40;;;;;;;3.93;3.63;;;;;;;;;;5033120;28;20452;-73
2022/08/30 03:37:07;;;;;;;4.67;4.20;;;;;;;;;;5032909;28;20487;-73
2022/08/30 03:39:34;;;;;;;5.00;4.50;;;;;;;;;;5032974;28;20498;-74
2022/08/30 03:42:03;;;;;;;4.27;3.70;;;;;;;;;;5032909;28;20494;-72
2022/08/30 03:44:30;;;;;;;4.20;3.80;;;;;;;;;;5033185;28;20482;-73
2022/08/30 03:46:58;;;;;;;4.20;3.80;;;;;;;;;;5033685;28;20460;-73
2022/08/30 03:49:25;;;;;;;5.73;3.83;;;;;;;;;;5033341;28;20531;-73
2022/08/30 03:51:52;;;;;;;5.50;4.73;;;;;;;;;;5033063;28;20614;-74
2022/08/30 03:54:19;;;;;;;4.83;4.37;;;;;;;;;;5033105;28;20448;-73
2022/08/30 03:56:47;;;;;;;4.73;4.33;;;;;;;;;;5032620;28;20999;-72
2022/08/30 03:59:15;;;;;;;5.50;5.00;;;;;;;;;;5032080;28;20543;-72
2022/08/30 04:01:44;;;;;;;6.13;4.10;;;;;;;;;;5032295;28;20521;-72
2022/08/30 04:04:11;;;;;;;4.50;4.10;;;;;;;;;;5031951;28;20486;-73
2022/08/30 04:06:39;;;;;;;4.97;4.57;;;;;;;;;;5032075;28;20443;-72
2022/08/30 04:09:06;;;;;;;4.80;4.40;;;;;;;;;;5031924;28;20484;-72
2022/08/30 04:11:33;;;;;;;4.47;4.07;;;;;;;;;;5032215;28;20451;-72
2022/08/30 04:14:00;;;;;;;4.40;4.00;;;;;;;;;;5032395;28;20443;-72
2022/08/30 04:16:29;;;;;;;3.73;3.53;;;;;;;;;;5032265;28;20531;-72
2022/08/30 04:18:56;;;;;;;4.20;3.90;;;;;;;;;;5032529;28;20532;-72
2022/08/30 04:21:23;;;;;;;4.70;4.30;;;;;;;;;;5032322;28;20487;-72
2022/08/30 04:23:51;;;;;;;5.53;3.90;;;;;;;;;;5032724;28;20972;-73
2022/08/30 04:26:18;;;;;;;6.53;3.77;;;;;;;;;;5032762;28;20453;-72
2022/08/30 04:28:45;;;;;;;4.07;3.77;;;;;;;;;;5036086;28;20472;-73
2022/08/30 04:31:14;;;;;;;5.10;4.20;;;;;;;;;;5035938;28;20532;-72
2022/08/30 04:33:43;;;;;;;5.10;3.80;;;;;;;;;;5036974;28;20451;-73
2022/08/30 04:36:12;;;;;;;3.97;3.67;;;;;;;;;;5035536;28;20443;-73
2022/08/30 04:38:39;;;;;;;5.03;3.33;;;;;;;;;;5035322;28;20452;-73
2022/08/30 04:41:10;;;;;;;12.13;4.20;;;;;;;;;;5035438;28;20447;-73
2022/08/30 04:43:38;;;;;;;4.33;4.03;;;;;;;;;;5036234;28;20470;-73
2022/08/30 04:46:06;;;;;;;5.70;4.03;;;;;;;;;;5036138;28;20452;-73
2022/08/30 04:48:33;;;;;;;8.67;4.30;;;;;;;;;;5035793;28;20447;-73
2022/08/30 04:51:03;;;;;;;9.20;4.47;;;;;;;;;;5035530;28;20509;-73
2022/08/30 04:53:30;;;;;;;5.30;4.13;;;;;;;;;;5036450;28;20866;-73
2022/08/30 04:55:58;;;;;;;6.80;4.60;;;;;;;;;;5035772;28;20456;-73
2022/08/30 04:58:25;;;;;;;3.93;3.63;;;;;;;;;;5035476;28;20537;-72
2022/08/30 05:00:52;;;;;;;5.73;5.17;;;;;;;;;;5035257;28;20476;-72
2022/08/30 05:03:20;;;;;;;6.73;4.80;;;;;;;;;;5035137;28;20475;-72
2022/08/30 05:05:51;;;;;;;8.10;5.30;;;;;;;;;;5035320;28;20944;-72
2022/08/30 05:08:21;;;;;;;4.70;4.30;;;;;;;;;;5035510;28;20442;-72
2022/08/30 05:10:49;;;;;;;5.20;4.70;;;;;;;;;;5035711;28;20438;-73
2022/08/30 05:13:17;;;;;;;7.53;5.40;;;;;;;;;;5035573;28;20478;-73
2022/08/30 05:15:45;;;;;;;5.90;5.07;;;;;;;;;;5035503;28;20479;-73
2022/08/30 05:18:13;;;;;;;5.27;4.80;;;;;;;;;;5035349;28;20526;-70
2022/08/30 05:20:40;;;;;;;5.00;4.60;;;;;;;;;;5035120;28;20448;-71
2022/08/30 05:23:08;;;;;;;5.67;4.80;;;;;;;;;;5034941;28;20991;-71
2022/08/30 05:25:38;;;;;;;7.90;4.67;;;;;;;;;;5034974;28;20443;-71
2022/08/30 05:28:05;;;;;;;5.30;4.80;;;;;;;;;;5034974;28;20471;-71
2022/08/30 05:30:33;;;;;;;7.13;5.73;;;;;;;;;;5034890;28;20458;-71
2022/08/30 05:33:00;;;;;;;8.33;4.50;;;;;;;;;;5035088;28;20937;-73
2022/08/30 05:35:28;;;;;;;12.80;4.37;;;;;;;;;;5034804;28;20536;-71
2022/08/30 05:37:55;;;;;;;8.00;4.23;;;;;;;;;;5034543;28;20471;-71
2022/08/30 05:40:22;;;;;;;6.23;4.43;;;;;;;;;;5035177;28;20511;-71
2022/08/30 05:42:51;;;;;;;5.07;4.57;;;;;;;;;;5034869;28;20480;-71
2022/08/30 05:45:18;;;;;;;4.00;3.70;;;;;;;;;;5035209;28;20467;-70
2022/08/30 05:47:46;;;;;;;4.97;4.23;;;;;;;;;;5034628;28;20543;-73
2022/08/30 05:50:13;;;;;;;4.93;4.40;;;;;;;;;;5035314;28;20444;-73
2022/08/30 05:52:41;;;;;;;5.40;4.07;;;;;;;;;;5034766;28;20532;-72
2022/08/30 05:55:09;;;;;;;4.53;4.13;;;;;;;;;;5034438;28;20447;-72
2022/08/30 05:57:37;;;;;;;4.90;4.40;;;;;;;;;;5034849;28;20497;-72
2022/08/30 06:00:08;;;;;;;11.97;5.00;;;;;;;;;;5034314;28;21019;-72
2022/08/30 06:02:35;;;;;;;5.60;4.23;;;;;;;;;;5034576;28;20437;-73
2022/08/30 06:05:03;;;;;;;7.20;5.70;;;;;;;;;;5034453;28;20511;-73
2022/08/30 06:07:31;;;;;;;5.40;4.90;;;;;;;;;;5034454;28;20444;-72
2022/08/30 06:09:58;;;;;;;4.60;4.20;;;;;;;;;;5033958;28;20994;-73
2022/08/30 06:12:25;;;;;;;4.33;3.93;;;;;;;;;;5034381;28;20539;-72
2022/08/30 06:14:53;;;;;;;4.80;4.00;;;;;;;;;;5034622;28;20454;-72
2022/08/30 06:17:21;;;;;;;5.77;3.67;;;;;;;;;;5033921;28;20953;-72
2022/08/30 06:19:49;;;;;;;7.63;4.60;;;;;;;;;;5033987;28;20537;-72
2022/08/30 06:22:16;;;;;;;5.20;4.10;;;;;;;;;;5034136;28;20824;-73
2022/08/30 06:24:44;;;;;;;5.63;3.80;;;;;;;;;;5034119;28;20506;-72
2022/08/30 06:27:11;;;;;;;6.37;4.23;;;;;;;;;;5034091;28;20976;-73
2022/08/30 06:29:38;;;;;;;7.10;4.53;;;;;;;;;;5033749;28;20493;-72
2022/08/30 06:32:05;;;;;;;5.00;4.50;;;;;;;;;;5033962;28;20439;-72
2022/08/30 06:34:34;;;;;;;8.27;4.43;;;;;;;;;;5034421;28;20453;-72
2022/08/30 06:37:01;;;;;;;4.57;4.00;;;;;;;;;;5034004;28;20449;-72
2022/08/30 06:39:29;;;;;;;5.40;4.40;;;;;;;;;;5033526;28;20538;-72
2022/08/30 06:41:56;;;;;;;9.63;4.63;;;;;;;;;;5034377;28;20459;-73
2022/08/30 06:44:23;;;;;;;7.73;3.90;;;;;;;;;;5033478;28;20517;-72
2022/08/30 06:46:51;;;;;;;19.20;5.77;;;;;;;;;;5033587;28;20873;-73
2022/08/30 06:49:18;;;;;;;4.70;4.17;;;;;;;;;;5033304;28;20543;-72
2022/08/30 06:51:46;;;;;;;6.23;4.23;;;;;;;;;;5034133;28;20534;-72
2022/08/30 06:54:14;;;;;;;5.83;3.90;;;;;;;;;;5033752;28;20433;-72
2022/08/30 06:56:41;;;;;;;5.27;4.10;;;;;;;;;;5034075;28;20494;-72
2022/08/30 06:59:08;;;;;;;5.90;4.60;;;;;;;;;;5033310;28;20497;-73
2022/08/30 07:01:36;;;;;;;5.47;4.17;;;;;;;;;;5033283;28;20531;-72
2022/08/30 07:04:03;;;;;;;4.37;3.97;;;;;;;;;;5033131;28;20575;-72
2022/08/30 07:06:31;;;;;;;5.27;3.50;;;;;;;;;;5033609;28;20529;-72
2022/08/30 07:08:59;;;;;;;4.37;3.60;;;;;;;;;;5033099;28;20577;-72
2022/08/30 07:11:32;;;;;;;4.90;4.47;;;;;;;;;;5033503;28;20450;-73
2022/08/30 07:13:59;;;;;;;4.90;3.37;;;;;;;;;;5033593;28;20479;-73
2022/08/30 07:16:27;;;;;;;3.97;3.57;;;;;;;;;;5033092;28;20446;-72
2022/08/30 07:18:53;;;;;;;3.67;3.37;;;;;;;;;;5033016;28;20566;-72
2022/08/30 07:21:25;;;;;;;4.93;2.87;;;;;;;;;;5033336;28;20440;-72
2022/08/30 07:23:53;;;;;;;7.30;3.63;;;;;;;;;;5033399;28;20813;-74
2022/08/30 07:26:23;;;;;;;4.73;3.33;;;;;;;;;;5033372;28;20447;-73
2022/08/30 07:28:50;;;;;;;6.77;3.37;;;;;;;;;;5032937;28;20446;-73
2022/08/30 07:31:18;;;;;;;3.87;3.13;;;;;;;;;;5033484;28;20502;-73
2022/08/30 07:33:46;;;;;;;8.27;3.60;;;;;;;;;;5032903;28;20454;-72
2022/08/30 07:36:14;;;;;;;3.27;2.50;;;;;;;;;;5033279;28;20873;-72
2022/08/30 07:38:41;;;;;;;8.03;3.53;;;;;;;;;;5033043;28;20462;-73
2022/08/30 07:41:16;;;;;;;7.90;3.90;;;;;;;;;;5033125;28;20546;-73
2022/08/30 07:43:45;;;;;;;3.93;2.97;;;;;;;;;;5033249;28;20435;-73
2022/08/30 07:46:12;;;;;;;2.90;2.63;;;;;;;;;;5032841;28;20540;-72
2022/08/30 07:48:39;;;;;;;3.37;2.27;;;;;;;;;;5032714;28;20440;-72
2022/08/30 07:51:09;;;;;;;4.13;2.30;;;;;;;;;;5033254;28;20484;-72
2022/08/30 07:53:37;;;;;;;3.17;2.63;;;;;;;;;;5032960;28;20939;-72
2022/08/30 07:56:04;;;;;;;6.60;2.80;;;;;;;;;;5033114;28;20476;-73
2022/08/30 07:58:32;;;;;;;5.63;2.27;;;;;;;;;;5033275;28;20447;-73
2022/08/30 08:01:00;;;;;;;6.43;2.63;;;;;;;;;;5033073;28;20447;-73
2022/08/30 08:03:28;;;;;;;4.33;2.60;;;;;;;;;;5036028;28;20930;-73
2022/08/30 08:05:55;;;;;;;9.50;2.20;;;;;;;;;;5037090;28;20535;-73
2022/08/30 08:08:23;;;;;;;5.20;1.83;;;;;;;;;;5036080;28;20473;-72
2022/08/30 08:10:50;;;;;;;8.83;2.43;;;;;;;;;;5035733;28;20443;-74
2022/08/30 08:13:18;;;;;;;8.93;2.27;;;;;;;;;;5036289;28;20538;-73
2022/08/30 08:15:45;;;;;;;4.00;2.00;;;;;;;;;;5036346;28;20547;-73
2022/08/30 08:18:14;;;;;;;2.20;1.90;;;;;;;;;;5036546;28;20444;-73
2022/08/30 08:20:41;;;;;;;2.40;2.00;;;;;;;;;;5036334;28;20448;-73
2022/08/30 08:23:08;;;;;;;2.10;1.90;;;;;;;;;;5036130;28;20966;-73
2022/08/30 08:25:38;;;;;;;8.83;2.10;;;;;;;;;;5036096;28;20470;-73
2022/08/30 08:28:06;;;;;;;4.80;2.23;;;;;;;;;;5036999;28;20490;-73
2022/08/30 08:30:34;;;;;;;5.90;2.97;;;;;;;;;;5035939;28;20535;-73
2022/08/30 08:33:02;;;;;;;4.60;2.70;;;;;;;;;;5036363;28;20577;-73
2022/08/30 08:35:31;;;;;;;4.40;1.90;;;;;;;;;;5035927;28;20513;-73
2022/08/30 08:37:59;;;;;;;2.93;1.90;;;;;;;;;;5036783;28;20501;-73
2022/08/30 08:40:26;;;;;;;4.40;1.80;;;;;;;;;;5035710;28;20454;-73
2022/08/30 08:43:00;;;;;;;3.93;2.10;;;;;;;;;;5036287;28;20946;-73
2022/08/30 08:45:33;;;;;;;2.53;1.90;;;;;;;;;;5035759;28;20471;-73
2022/08/30 08:48:02;;;;;;;4.67;1.87;;;;;;;;;;5036082;28;20420;-73
2022/08/30 08:50:31;;;;;;;3.10;1.80;;;;;;;;;;5035709;28;20471;-73
2022/08/30 08:55:49;;;;;;;5.60;2.20;;;;;;;;;;5035729;28;20432;-73
2022/08/30 08:58:20;;;;;;;3.87;1.80;;;;;;;;;;5035935;28;20449;-73
2022/08/30 09:00:47;;;;;;;2.70;2.20;;;;;;;;;;5035878;28;20482;-73
2022/08/30 09:03:15;;;;;;;6.23;2.33;;;;;;;;;;5036289;28;20526;-73
2022/08/30 09:05:45;;;;;;;2.90;2.10;;;;;;;;;;5035631;28;20478;-73
2022/08/30 09:08:18;;;;;;;3.97;1.90;;;;;;;;;;5035769;28;20483;-73
2022/08/30 09:10:49;;;;;;;3.90;1.70;;;;;;;;;;5035930;28;20534;-73
2022/08/30 09:13:16;;;;;;;2.50;1.93;;;;;;;;;;5035552;28;20468;-73
2022/08/30 09:15:43;;;;;;;4.43;2.20;;;;;;;;;;5035244;28;20465;-73
2022/08/30 09:18:11;;;;;;;2.60;1.80;;;;;;;;;;5035894;28;20527;-73
2022/08/30 09:20:40;;;;;;;1.93;1.83;;;;;;;;;;5035453;28;20452;-73
2022/08/30 09:23:23;;;;;;;5.87;2.80;;;;;;;;;;5035187;28;21003;-73
2022/08/30 09:25:51;;;;;;;2.33;1.67;;;;;;;;;;5035318;28;20508;-75
2022/08/30 09:28:23;;;;;;;3.00;1.77;;;;;;;;;;5035039;28;20446;-73
2022/08/30 09:30:59;;;;;;;4.23;2.67;;;;;;;;;;5035358;28;20857;-72
2022/08/30 09:33:26;;;;;;;4.43;2.30;;;;;;;;;;5035278;28;20519;-72
2022/08/30 09:35:53;;;;;;;2.20;1.90;;;;;;;;;;5034773;28;21001;-72
2022/08/30 09:38:24;;;;;;;3.50;2.10;;;;;;;;;;5035135;28;20480;-72
2022/08/30 09:40:52;;;;;;;2.10;1.73;;;;;;;;;;5035033;28;20919;-72
2022/08/30 09:43:23;;;;;;;6.07;2.63;;;;;;;;;;5034979;28;20451;-72
2022/08/30 09:46:05;;;;;;;4.17;3.00;;;;;;;;;;5034813;28;20554;-72
2022/08/30 09:48:36;;;;;;;3.50;2.20;;;;;;;;;;5035290;28;20532;-72
2022/08/30 09:51:21;;;;;;;2.37;2.20;;;;;;;;;;5034598;28;20959;-72
2022/08/30 09:53:53;;;;;;;2.57;1.93;;;;;;;;;;5025060;28;20543;-72
2022/08/30 09:56:24;;;;;;;2.27;2.10;;;;;;;;;;5034739;28;20476;-71
2022/08/30 09:59:01;;;;;;;6.80;2.13;;;;;;;;;;5035002;28;20515;-71
2022/08/30 10:01:30;;;;;;;2.97;2.67;;;;;;;;;;5034795;28;20894;-71
2022/08/30 10:04:01;;;;;;;2.10;2.00;;;;;;;;;;5034639;28;20445;-72
2022/08/30 10:06:32;;;;;;;6.97;2.00;;;;;;;;;;5034303;28;20969;-71
2022/08/30 10:09:06;;;;;;;2.40;2.20;;;;;;;;;;5033982;28;20483;-71
2022/08/30 10:11:37;;;;;;;3.03;2.00;;;;;;;;;;5034604;28;20526;-71
2022/08/30 10:14:09;;;;;;;1.97;1.87;;;;;;;;;;5034598;28;20447;-72
2022/08/30 10:16:43;;;;;;;2.43;2.20;;;;;;;;;;5034140;28;20443;-72
2022/08/30 10:19:17;;;;;;;5.03;3.80;;;;;;;;;;5034491;28;20427;-72
2022/08/30 10:21:46;;;;;;;2.70;2.03;;;;;;;;;;5034016;28;20991;-72
2022/08/30 10:24:16;;;;;;;3.47;2.40;;;;;;;;;;5033481;28;20479;-72
2022/08/30 10:26:48;;;;;;;5.80;2.10;;;;;;;;;;5034240;28;20819;-71
2022/08/30 10:29:17;;;;;;;6.23;2.33;;;;;;;;;;5034410;28;20437;-72
2022/08/30 10:31:46;;;;;;;2.70;2.03;;;;;;;;;;5034080;28;20536;-72
2022/08/30 10:34:17;;;;;;;7.10;2.40;;;;;;;;;;5033735;28;20536;-72
2022/08/30 10:36:45;;;;;;;2.20;2.00;;;;;;;;;;5033592;28;20433;-72
2022/08/30 10:39:14;;;;;;;2.30;1.80;;;;;;;;;;5033834;28;20485;-73
2022/08/30 10:41:45;;;;;;;2.43;1.80;;;;;;;;;;5033842;28;20545;-73
2022/08/30 10:44:16;;;;;;;3.93;2.57;;;;;;;;;;5033809;28;20493;-72
2022/08/30 10:46:47;;;;;;;3.47;2.30;;;;;;;;;;5033679;28;20568;-72
2022/08/30 10:49:16;;;;;;;2.73;2.53;;;;;;;;;;5033973;28;20505;-72
2022/08/30 10:51:46;;;;;;;4.33;2.20;;;;;;;;;;5033977;28;20944;-72
2022/08/30 10:54:17;;;;;;;2.13;2.03;;;;;;;;;;5033535;28;20527;-72
2022/08/30 10:56:50;;;;;;;8.63;6.10;;;;;;;;;;5033921;28;20517;-72
2022/08/30 10:59:18;;;;;;;2.20;2.00;;;;;;;;;;5034013;28;20484;-72
2022/08/30 11:01:57;;;;;;;2.47;2.27;;;;;;;;;;5033728;28;20517;-72
2022/08/30 11:04:32;;;;;;;2.23;2.03;;;;;;;;;;5033731;28;20470;-72
2022/08/30 11:07:04;;;;;;;2.00;1.70;;;;;;;;;;5033790;28;20476;-72
2022/08/30 11:09:37;;;;;;;7.33;1.83;;;;;;;;;;5033444;28;20477;-71
2022/08/30 11:12:19;;;;;;;3.27;1.83;;;;;;;;;;5033737;28;20469;-72
2022/08/30 11:14:48;;;;;;;1.70;1.60;;;;;;;;;;5031815;28;20741;-72
2022/08/30 11:17:24;;;;;;;2.37;2.17;;;;;;;;;;5033453;28;20842;-72
2022/08/30 11:19:51;;;;;;;5.67;2.20;;;;;;;;;;5033876;28;20430;-72
2022/08/30 11:22:23;;;;;;;3.37;2.43;;;;;;;;;;5032997;28;20490;-73
2022/08/30 11:25:01;;;;;;;2.60;1.93;;;;;;;;;;5033604;28;20794;-73
2022/08/30 11:27:41;;;;;;;2.80;2.10;;;;;;;;;;5033427;28;20448;-73
2022/08/30 11:30:27;;;;;;;2.83;2.40;;;;;;;;;;5033331;28;20446;-72
2022/08/30 11:32:59;;;;;;;1.77;1.63;;;;;;;;;;5033328;28;20516;-72
2022/08/30 11:35:41;;;;;;;5.00;1.80;;;;;;;;;;5033311;28;20983;-72
2022/08/30 11:38:17;;;;;;;2.90;2.20;;;;;;;;;;5037656;28;20457;-72
2022/08/30 11:40:49;;;;;;;2.63;1.77;;;;;;;;;;5036885;28;20544;-73
2022/08/30 11:43:38;;;;;;;2.63;1.80;;;;;;;;;;5037123;28;20426;-72
2022/08/30 11:46:16;;;;;;;2.60;2.37;;;;;;;;;;5036680;28;20482;-72
2022/08/30 11:48:50;;;;;;;4.00;3.40;;;;;;;;;;5037123;28;20481;-73
2022/08/30 11:51:35;;;;;;;6.07;3.33;;;;;;;;;;5037291;28;20508;-72
2022/08/30 11:54:06;;;;;;;4.90;1.93;;;;;;;;;;5036892;28;20537;-72
2022/08/30 11:56:35;;;;;;;2.03;1.93;;;;;;;;;;5036663;28;20464;-72
2022/08/30 11:59:06;;;;;;;1.73;1.63;;;;;;;;;;5036869;28;20529;-72
2022/08/30 12:01:35;;;;;;;2.07;1.90;;;;;;;;;;5036692;28;20486;-72
2022/08/30 12:04:07;;;;;;;2.40;1.60;;;;;;;;;;5037251;28;20492;-72
2022/08/30 12:06:44;;;;;;;2.43;2.00;;;;;;;;;;5036338;28;20980;-73
2022/08/30 12:09:13;;;;;;;2.97;2.00;;;;;;;;;;5036516;28;20472;-71
2022/08/30 12:11:54;;;;;;;2.50;1.90;;;;;;;;;;5036365;28;20954;-72
2022/08/30 12:14:40;;;;;;;6.90;2.27;;;;;;;;;;5037025;28;20462;-72
2022/08/30 12:20:39;;;;;;;5.53;2.40;;;;;;;;;;5029591;28;20469;-72
2022/08/30 12:23:15;;;;;;;2.43;1.97;;;;;;;;;;5036265;28;20889;-72
2022/08/30 12:25:42;;;;;;;3.17;1.70;;;;;;;;;;5036462;28;20471;-72
2022/08/30 12:28:11;;;;;;;3.63;2.50;;;;;;;;;;5036389;28;20475;-72
2022/08/30 12:30:39;;;;;;;5.73;4.73;;;;;;;;;;5036601;28;20864;-73
2022/08/30 12:33:06;;;;;;;5.40;2.13;;;;;;;;;;5036016;28;20443;-72
2022/08/30 12:35:35;;;;;;;3.50;2.00;;;;;;;;;;5036332;28;20954;-73
2022/08/30 12:38:04;;;;;;;2.23;1.90;;;;;;;;;;5036158;28;20524;-73
2022/08/30 12:40:33;;;;;;;4.63;1.90;;;;;;;;;;5036534;28;20459;-73
2022/08/30 12:43:03;;;;;;;3.20;2.33;;;;;;;;;;5035786;28;20592;-73
2022/08/30 12:45:32;;;;;;;2.90;1.70;;;;;;;;;;5036382;28;20482;-73
2022/08/30 12:48:01;;;;;;;5.10;3.47;;;;;;;;;;5035371;28;20453;-72
2022/08/30 12:50:30;;;;;;;4.10;2.20;;;;;;;;;;5036236;28;20554;-72
2022/08/30 12:52:59;;;;;;;4.03;2.07;;;;;;;;;;5035942;28;20434;-72
2022/08/30 12:55:29;;;;;;;4.07;2.00;;;;;;;;;;5035979;28;20451;-79
2022/08/30 12:57:57;;;;;;;3.97;2.70;;;;;;;;;;5036002;28;20451;-76
2022/08/30 13:00:25;;;;;;;3.60;2.30;;;;;;;;;;5035523;28;20937;-79
2022/08/30 13:02:53;;;;;;;5.70;2.70;;;;;;;;;;5035692;28;20479;-79
2022/08/30 13:05:35;;;;;;;4.00;2.30;;;;;;;;;;5035692;28;20953;-78
2022/08/30 13:08:10;;;;;;;4.03;1.80;;;;;;;;;;5035514;28;20865;-78
2022/08/30 13:10:38;;;;;;;4.13;2.10;;;;;;;;;;5035696;28;20563;-81
2022/08/30 13:13:06;;;;;;;2.40;2.20;;;;;;;;;;5035812;28;20923;-79
2022/08/30 13:15:34;;;;;;;3.80;2.03;;;;;;;;;;5035563;28;20873;-79
2022/08/30 13:18:12;;;;;;;4.93;2.27;;;;;;;;;;5035163;28;20739;-78
2022/08/30 13:20:39;;;;;;;2.50;2.27;;;;;;;;;;5034233;28;20524;-77
2022/08/30 13:23:08;;;;;;;2.53;2.17;;;;;;;;;;5034047;28;20448;-79
2022/08/30 13:25:37;;;;;;;4.50;2.00;;;;;;;;;;5034532;28;20484;-77
2022/08/30 13:28:05;;;;;;;3.57;2.10;;;;;;;;;;5034716;28;20529;-79
2022/08/30 13:30:33;;;;;;;2.40;2.20;;;;;;;;;;5034420;28;20480;-77
2022/08/30 13:33:00;;;;;;;3.23;2.60;;;;;;;;;;5034488;28;20465;-76
2022/08/30 13:35:28;;;;;;;3.30;2.00;;;;;;;;;;5034177;28;20540;-77
2022/08/30 13:37:56;;;;;;;3.60;2.67;;;;;;;;;;5034437;28;20456;-80
2022/08/30 13:40:23;;;;;;;3.00;2.70;;;;;;;;;;5034170;28;20889;-75
2022/08/30 13:42:52;;;;;;;3.47;2.40;;;;;;;;;;5034592;28;20449;-80
2022/08/30 13:45:20;;;;;;;2.73;2.17;;;;;;;;;;5034658;28;20850;-75
2022/08/30 13:47:48;;;;;;;2.23;2.03;;;;;;;;;;5034906;28;20445;-73
2022/08/30 13:50:15;;;;;;;2.50;2.20;;;;;;;;;;5035104;28;20453;-73
2022/08/30 13:52:43;;;;;;;2.77;1.97;;;;;;;;;;5035048;28;20445;-74
2022/08/30 13:55:11;;;;;;;4.23;2.17;;;;;;;;;;5034777;28;20438;-74
2022/08/30 13:57:38;;;;;;;1.80;1.70;;;;;;;;;;5034580;28;20481;-75
2022/08/30 14:00:09;;;;;;;2.87;2.10;;;;;;;;;;5034500;28;20532;-75
2022/08/30 14:02:37;;;;;;;2.63;1.90;;;;;;;;;;5034433;28;20499;-75
2022/08/30 14:05:04;;;;;;;2.03;1.80;;;;;;;;;;5034290;28;20547;-76
2022/08/30 14:07:31;;;;;;;2.80;1.93;;;;;;;;;;5034238;28;20515;-76
2022/08/30 14:09:59;;;;;;;5.87;2.73;;;;;;;;;;5033966;28;20481;-75
2022/08/30 14:12:26;;;;;;;2.10;1.90;;;;;;;;;;5034262;28;20537;-75
2022/08/30 14:14:55;;;;;;;6.17;1.83;;;;;;;;;;5034439;28;20529;-74
2022/08/30 14:17:29;;;;;;;4.23;1.80;;;;;;;;;;5034030;28;20454;-75
2022/08/30 14:19:56;;;;;;;5.33;2.10;;;;;;;;;;5033387;28;20434;-75
2022/08/30 14:22:23;;;;;;;2.00;1.80;;;;;;;;;;5033779;28;20442;-74
2022/08/30 14:24:50;;;;;;;5.47;2.00;;;;;;;;;;5034040;28;20449;-75
2022/08/30 14:27:18;;;;;;;2.60;1.90;;;;;;;;;;5033952;28;20474;-76
2022/08/30 14:29:45;;;;;;;2.60;1.90;;;;;;;;;;5033871;28;20450;-76
2022/08/30 14:32:12;;;;;;;1.77;1.67;;;;;;;;;;5034107;28;20537;-75
2022/08/30 14:34:41;;;;;;;4.90;2.30;;;;;;;;;;5033951;28;20440;-76
2022/08/30 14:37:08;;;;;;;3.80;2.10;;;;;;;;;;5034026;28;20438;-76
2022/08/30 14:39:35;;;;;;;3.47;2.00;;;;;;;;;;5033244;28;20461;-74
2022/08/30 14:42:02;;;;;;;4.90;3.87;;;;;;;;;;5033698;28;20450;-75
2022/08/30 14:44:30;;;;;;;2.90;1.70;;;;;;;;;;5033438;28;20479;-75
2022/08/30 14:46:57;;;;;;;4.20;2.03;;;;;;;;;;5033394;28;20509;-72
2022/08/30 14:49:25;;;;;;;3.07;2.20;;;;;;;;;;5033884;28;20954;-79
2022/08/30 14:51:53;;;;;;;2.90;2.27;;;;;;;;;;5034179;28;20498;-78
2022/08/30 14:54:22;;;;;;;5.97;2.00;;;;;;;;;;5033353;28;20476;-77
2022/08/30 14:56:49;;;;;;;1.80;1.70;;;;;;;;;;5033693;28;20868;-81
2022/08/30 14:59:17;;;;;;;2.30;2.10;;;;;;;;;;5033234;28;20482;-78
2022/08/30 15:01:44;;;;;;;2.77;2.27;;;;;;;;;;5033667;28;20443;-77